Time;durP1;ratioP1;P1;durP2;ratioP2;P2;SDS_P1;SDS_P2;PMS_P1;PMS_P2;Temp;Humidity;BMP_temperature;BMP_pressure;BME280_temperature;BME280_humidity;BME280_pressure;Samples;Min_cycle;Max_cycle;Signal;HPM_P1;HPM_P2
2021/12/30 00:22:12;;;;;;;27.45;15.93;;;;;;;9.34;100.00;100049.94;4852778;29;20122;-89
2021/12/30 00:25:02;;;;;;;27.20;16.52;;;;;;;9.45;100.00;100070.56;4852366;29;20437;-89
2021/12/30 00:28:26;;;;;;;27.33;16.00;;;;;;;9.30;100.00;100055.41;4875194;29;20045;-89
2021/12/30 00:31:15;;;;;;;27.10;15.02;;;;;;;9.25;100.00;100046.88;4858225;29;20054;-88
2021/12/30 00:34:31;;;;;;;;;;;;;;;;;;;;;
2021/12/30 00:37:16;;;;;;;27.75;16.15;;;;;;;9.21;100.00;100040.88;4860686;29;20064;-88
2021/12/30 00:40:11;;;;;;;32.20;17.25;;;;;;;9.27;100.00;100063.50;4857841;29;20064;-88
2021/12/30 00:43:04;;;;;;;;;;;;;;;;;;;;;
2021/12/30 00:49:14;;;;;;;33.00;17.98;;;;;;;9.14;100.00;100055.28;4855016;29;20065;-89
2021/12/30 00:52:07;;;;;;;32.03;17.02;;;;;;;9.47;100.00;100125.06;4789267;29;20063;-89
2021/12/30 00:55:39;;;;;;;25.70;15.93;;;;;;;9.15;100.00;100083.41;4781587;29;20157;-88
2021/12/30 00:58:17;;;;;;;25.45;15.68;;;;;;;9.07;100.00;100086.41;4788355;29;20067;-89
2021/12/30 01:01:09;;;;;;;;;;;;;;;;;;;;;
2021/12/30 01:03:52;;;;;;;30.10;16.88;;;;;;;9.23;100.00;100099.78;4786479;29;20128;-89
2021/12/30 01:06:52;;;;;;;29.40;17.00;;;;;;;9.08;100.00;100061.72;4789350;29;20158;-90
2021/12/30 01:10:17;;;;;;;27.80;14.35;;;;;;;9.14;100.00;100079.06;4786619;29;20319;-89
2021/12/30 01:13:06;;;;;;;29.85;14.70;;;;;;;9.15;100.00;100081.63;4782338;29;20058;-88
2021/12/30 01:21:33;;;;;;;20.55;10.88;;;;;;;9.41;100.00;100128.00;4862052;29;20077;-89
2021/12/30 01:24:08;;;;;;;21.50;10.23;;;;;;;9.50;100.00;100134.63;4865402;29;20053;-90
2021/12/30 01:26:45;;;;;;;14.98;8.05;;;;;;;9.49;100.00;100136.41;4873814;29;20044;-89
2021/12/30 01:29:32;;;;;;;16.67;8.70;;;;;;;9.70;100.00;100160.16;4867796;29;20068;-89
2021/12/30 01:32:18;;;;;;;15.68;6.20;;;;;;;9.74;100.00;100164.38;4860701;29;20077;-89
2021/12/30 01:34:57;;;;;;;13.65;5.15;;;;;;;9.61;100.00;100139.41;4866971;29;20045;-90
2021/12/30 01:37:40;;;;;;;13.93;4.65;;;;;;;9.75;100.00;100151.06;4869741;29;20125;-89
2021/12/30 01:40:15;;;;;;;10.30;4.07;;;;;;;9.60;100.00;100116.56;4874202;29;20112;-89
2021/12/30 01:42:43;;;;;;;9.27;3.58;;;;;;;9.76;100.00;100147.47;4878131;29;20042;-88
2021/12/30 01:45:22;;;;;;;7.75;3.72;;;;;;;9.86;100.00;100161.13;4876310;29;20044;-88
2021/12/30 01:47:52;;;;;;;6.90;2.80;;;;;;;9.97;100.00;100163.25;4855477;29;20109;-88
2021/12/30 01:50:20;;;;;;;10.57;2.67;;;;;;;10.24;100.00;100203.41;4861682;29;20045;-88
2021/12/30 01:52:47;;;;;;;5.80;2.75;;;;;;;10.24;100.00;100208.72;4874537;29;20056;-88
2021/12/30 01:55:16;;;;;;;8.25;2.40;;;;;;;10.06;100.00;100184.84;4876223;29;20069;-89
2021/12/30 01:57:44;;;;;;;10.55;2.47;;;;;;;10.11;100.00;100182.81;4881216;29;20052;-89
2021/12/30 02:00:16;;;;;;;7.75;2.10;;;;;;;10.16;100.00;100190.53;4876501;29;20049;-88
2021/12/30 02:02:44;;;;;;;6.25;2.00;;;;;;;10.16;100.00;100190.53;4875930;29;20096;-88
2021/12/30 02:05:14;;;;;;;7.60;2.47;;;;;;;10.26;100.00;100228.03;4872943;29;20111;-86
2021/12/30 02:07:45;;;;;;;10.13;2.80;;;;;;;10.05;100.00;100185.78;4875533;29;20474;-89
2021/12/30 02:10:14;;;;;;;8.02;1.90;;;;;;;10.21;100.00;100208.88;4862519;29;20072;-88
2021/12/30 02:12:46;;;;;;;7.57;1.90;;;;;;;10.01;100.00;100181.56;4867597;29;20505;-89
2021/12/30 02:15:16;;;;;;;10.82;2.42;;;;;;;10.02;100.00;100195.66;4877884;29;20052;-88
2021/12/30 02:17:45;;;;;;;7.65;2.35;;;;;;;9.90;100.00;100173.28;4870888;29;20117;-88
2021/12/30 02:20:50;;;;;;;8.48;2.08;;;;;;;9.94;100.00;100174.84;4863421;29;20064;-88
2021/12/30 02:23:22;;;;;;;7.90;1.90;;;;;;;10.11;100.00;100192.53;4864171;29;20104;-89
2021/12/30 02:25:52;;;;;;;10.98;2.03;;;;;;;10.23;100.00;100220.25;4864611;29;20422;-88
2021/12/30 02:28:25;;;;;;;9.48;2.13;;;;;;;10.44;100.00;100221.84;4865000;29;20052;-88
2021/12/30 02:30:54;;;;;;;9.55;1.88;;;;;;;10.58;100.00;100229.97;4861481;29;20061;-88
2021/12/30 02:33:21;;;;;;;7.93;1.80;;;;;;;10.48;100.00;100223.41;4862437;29;20053;-88
2021/12/30 02:35:49;;;;;;;9.52;1.77;;;;;;;10.32;100.00;100174.81;4862836;29;20056;-88
2021/12/30 02:38:18;;;;;;;7.35;1.75;;;;;;;10.36;100.00;100184.31;4862382;29;20058;-88
2021/12/30 02:40:49;;;;;;;10.52;1.80;;;;;;;10.41;100.00;100187.56;4863873;29;20141;-90
2021/12/30 02:43:23;;;;;;;7.72;1.70;;;;;;;10.41;100.00;100188.44;4867321;29;20141;-88
2021/12/30 02:45:53;;;;;;;10.95;1.65;;;;;;;10.52;100.00;100204.66;4853929;29;20577;-88
2021/12/30 02:48:27;;;;;;;9.75;2.08;;;;;;;10.60;100.00;100214.84;4873010;29;20102;-88
2021/12/30 02:50:58;;;;;;;12.10;2.20;;;;;;;10.68;100.00;100243.63;4848265;29;20057;-87
2021/12/30 02:53:25;;;;;;;11.60;2.35;;;;;;;10.53;100.00;100247.88;4883192;29;20061;-87
2021/12/30 02:55:53;;;;;;;8.93;2.13;;;;;;;10.60;100.00;100275.75;4884066;29;20060;-88
2021/12/30 02:58:24;;;;;;;8.57;2.33;;;;;;;10.53;100.00;100263.78;4869444;29;20045;-88
2021/12/30 03:00:59;;;;;;;7.60;1.88;;;;;;;10.71;100.00;100291.97;4865217;29;20133;-88
2021/12/30 03:03:26;;;;;;;7.10;2.63;;;;;;;10.66;100.00;100299.31;4868325;29;20069;-87
2021/12/30 03:05:58;;;;;;;8.48;1.75;;;;;;;10.47;100.00;100295.81;4871682;29;20085;-87
2021/12/30 03:08:26;;;;;;;7.93;1.90;;;;;;;10.50;100.00;100303.63;4869353;29;20094;-88
2021/12/30 03:10:53;;;;;;;8.95;2.00;;;;;;;10.45;100.00;100298.53;4861801;29;20136;-88
2021/12/30 03:13:29;;;;;;;12.27;1.90;;;;;;;10.30;100.00;100287.81;4862588;29;20494;-88
2021/12/30 03:16:06;;;;;;;12.30;2.35;;;;;;;10.17;100.00;100283.09;4861184;29;20121;-88
2021/12/30 03:18:35;;;;;;;7.93;1.80;;;;;;;10.23;100.00;100307.59;4859788;29;20736;-88
2021/12/30 03:21:05;;;;;;;10.48;2.10;;;;;;;10.02;100.00;100267.06;4860382;29;20077;-88
2021/12/30 03:23:33;;;;;;;12.13;1.90;;;;;;;10.28;100.00;100308.22;4861897;29;20113;-88
2021/12/30 03:26:00;;;;;;;12.45;2.78;;;;;;;10.09;100.00;100279.94;4863085;29;20085;-88
2021/12/30 03:28:27;;;;;;;10.30;2.20;;;;;;;10.25;100.00;100311.84;4864170;29;20057;-88
2021/12/30 03:30:58;;;;;;;7.55;2.35;;;;;;;10.20;100.00;100303.28;4858030;29;20148;-88
2021/12/30 03:33:30;;;;;;;14.48;2.30;;;;;;;10.07;100.00;100280.94;4862724;29;20061;-88
2021/12/30 03:36:00;;;;;;;8.75;2.10;;;;;;;9.94;100.00;100251.53;4864532;29;20065;-87
2021/12/30 03:38:29;;;;;;;12.23;2.63;;;;;;;10.29;100.00;100313.44;4865607;29;20112;-88
2021/12/30 03:40:57;;;;;;;13.68;2.22;;;;;;;10.17;100.00;100308.69;4860713;29;20100;-88
2021/12/30 03:43:24;;;;;;;9.40;2.42;;;;;;;10.03;100.00;100290.81;4862832;29;20405;-87
2021/12/30 03:45:52;;;;;;;11.35;2.13;;;;;;;10.08;100.00;100291.44;4861228;29;20089;-88
2021/12/30 03:48:19;;;;;;;9.07;2.05;;;;;;;10.20;100.00;100324.47;4867178;29;20060;-88
2021/12/30 03:50:48;;;;;;;11.20;2.45;;;;;;;10.02;100.00;100289.09;4858935;29;20068;-89
2021/12/30 03:53:15;;;;;;;9.10;2.20;;;;;;;10.10;100.00;100297.53;4858848;29;20698;-87
2021/12/30 03:55:46;;;;;;;10.18;2.20;;;;;;;10.00;100.00;100269.78;4858725;29;20055;-87
2021/12/30 03:58:13;;;;;;;;;;;;;;;10.34;100.00;100343.19;4864594;29;20060;-88
2021/12/30 04:00:40;;;;;;;8.70;2.65;;;;;;;10.22;100.00;100321.75;4837721;29;19975;-87
2021/12/30 04:03:06;;;;;;;8.57;2.17;;;;;;;10.29;100.00;100334.59;4863354;29;20592;-88
2021/12/30 04:05:33;;;;;;;5.85;1.80;;;;;;;10.14;100.00;100314.13;4846455;29;20090;-87
2021/12/30 04:08:00;;;;;;;10.85;2.78;;;;;;;10.10;100.00;100305.47;4871588;29;20608;-87
2021/12/30 04:10:27;;;;;;;10.55;2.03;;;;;;;10.06;100.00;100293.31;4868264;29;20079;-86
2021/12/30 04:12:57;;;;;;;8.15;2.13;;;;;;;10.22;100.00;100324.41;4869806;29;20489;-88
2021/12/30 04:15:24;;;;;;;14.07;2.40;;;;;;;10.27;100.00;100336.47;4867628;29;20054;-88
2021/12/30 04:17:50;;;;;;;12.95;2.72;;;;;;;10.19;100.00;100312.16;4862365;29;20100;-88
2021/12/30 04:20:17;;;;;;;10.80;2.60;;;;;;;10.06;100.00;100306.56;4859097;29;20137;-88
2021/12/30 04:22:45;;;;;;;11.27;2.20;;;;;;;10.09;100.00;100306.38;4865799;29;20053;-88
2021/12/30 04:25:16;;;;;;;11.65;2.80;;;;;;;10.23;100.00;100328.75;4867594;29;20160;-87
2021/12/30 04:27:44;;;;;;;11.27;2.22;;;;;;;10.13;100.00;100321.19;4858639;29;20569;-87
2021/12/30 04:30:12;;;;;;;6.03;2.47;;;;;;;10.03;100.00;100313.75;4858949;29;20076;-88
2021/12/30 04:32:41;;;;;;;7.82;2.20;;;;;;;10.26;100.00;100355.06;4859465;29;20053;-86
2021/12/30 04:35:09;;;;;;;6.85;2.45;;;;;;;10.27;100.00;100357.63;4870714;29;20061;-87
2021/12/30 04:37:36;;;;;;;16.98;2.65;;;;;;;10.25;100.00;100355.97;4858584;29;20080;-87
2021/12/30 04:40:06;;;;;;;9.55;2.10;;;;;;;10.13;100.00;100341.50;4865963;29;20073;-87
2021/12/30 04:42:33;;;;;;;13.05;2.22;;;;;;;10.24;100.00;100351.63;4870359;29;20092;-87
2021/12/30 04:45:00;;;;;;;12.75;2.78;;;;;;;10.08;100.00;100325.84;4873925;29;20033;-87
2021/12/30 04:47:27;;;;;;;12.80;2.00;;;;;;;10.08;100.00;100330.25;4875372;29;20059;-87
2021/12/30 04:49:57;;;;;;;7.13;1.90;;;;;;;10.02;100.00;100323.50;4860992;29;20049;-87
2021/12/30 04:52:25;;;;;;;8.20;2.00;;;;;;;10.15;100.00;100334.34;4864307;29;20049;-87
2021/12/30 04:54:52;;;;;;;6.68;1.63;;;;;;;10.23;100.00;100342.00;4862432;29;20498;-87
2021/12/30 04:57:19;;;;;;;6.32;1.80;;;;;;;10.39;100.00;100361.53;4861835;29;20068;-87
2021/12/30 04:59:46;;;;;;;9.55;1.90;;;;;;;10.19;100.00;100334.19;4843683;29;20132;-87
2021/12/30 05:02:13;;;;;;;10.07;2.25;;;;;;;10.32;100.00;100357.44;4857827;29;20149;-87
2021/12/30 05:04:40;;;;;;;5.22;1.77;;;;;;;10.14;100.00;100330.84;4858693;29;20517;-88
2021/12/30 05:07:07;;;;;;;9.07;1.90;;;;;;;10.16;100.00;100334.28;4861955;29;20078;-87
2021/12/30 05:09:34;;;;;;;7.13;1.75;;;;;;;10.25;100.00;100354.19;4859260;29;20050;-88
2021/12/30 05:12:02;;;;;;;7.05;1.90;;;;;;;10.15;100.00;100343.16;4856513;29;20116;-88
2021/12/30 05:14:29;;;;;;;9.68;2.08;;;;;;;10.16;100.00;100351.94;4860767;29;20436;-88
2021/12/30 05:17:02;;;;;;;13.07;2.55;;;;;;;10.08;100.00;100336.41;4861878;29;20061;-88
2021/12/30 05:19:30;;;;;;;7.47;2.00;;;;;;;10.24;100.00;100364.84;4849540;29;20046;-89
2021/12/30 05:21:57;;;;;;;7.13;2.55;;;;;;;10.07;100.00;100334.69;4844974;29;20053;-89
2021/12/30 05:24:24;;;;;;;8.38;2.08;;;;;;;9.87;100.00;100303.03;4858513;29;20081;-89
2021/12/30 05:26:51;;;;;;;9.10;1.90;;;;;;;10.11;100.00;100343.34;4859889;29;20061;-89
2021/12/30 05:29:18;;;;;;;10.38;2.20;;;;;;;10.19;100.00;100355.34;4865993;29;20049;-88
2021/12/30 05:31:45;;;;;;;11.10;1.95;;;;;;;10.14;100.00;100348.50;4857849;29;20057;-89
2021/12/30 05:34:12;;;;;;;9.50;2.30;;;;;;;10.00;100.00;100322.69;4860412;29;20117;-89
2021/12/30 05:36:39;;;;;;;10.88;2.15;;;;;;;10.04;100.00;100334.00;4855524;29;20049;-88
2021/12/30 05:39:08;;;;;;;9.07;2.00;;;;;;;10.05;100.00;100347.16;4861486;29;20498;-88
2021/12/30 05:41:35;;;;;;;10.65;2.05;;;;;;;10.13;100.00;100375.91;4858555;29;20491;-89
2021/12/30 05:44:02;;;;;;;11.55;2.47;;;;;;;9.81;100.00;100316.50;4859673;29;20079;-89
2021/12/30 05:46:29;;;;;;;14.75;2.65;;;;;;;10.04;100.00;100358.69;4843005;29;20082;-89
2021/12/30 05:48:56;;;;;;;7.10;2.45;;;;;;;10.05;100.00;100359.53;4859743;29;20083;-88
2021/12/30 05:51:26;;;;;;;9.32;2.33;;;;;;;9.94;100.00;100340.63;4860611;29;20501;-89
2021/12/30 05:54:01;;;;;;;10.80;2.72;;;;;;;10.03;100.00;100356.09;4860796;29;20056;-90
2021/12/30 05:56:37;;;;;;;11.77;2.65;;;;;;;9.86;100.00;100335.69;4851254;29;20061;-89
2021/12/30 05:59:36;;;;;;;;;;;;;;;;;;;;;
2021/12/30 06:05:39;;;;;;;7.93;2.70;;;;;;;10.02;100.00;100372.91;4856019;29;20056;-89
2021/12/30 06:09:01;;;;;;;;;;;;;;;;;;;;;
2021/12/30 06:11:48;;;;;;;11.75;3.00;;;;;;;9.85;100.00;100344.56;4855146;29;20096;-89
2021/12/30 06:14:35;;;;;;;10.30;2.80;;;;;;;10.13;100.00;100387.34;4859567;29;20046;-89
2021/12/30 06:17:41;;;;;;;13.38;3.10;;;;;;;9.89;100.00;100340.84;4861215;29;20049;-91
2021/12/30 06:20:25;;;;;;;13.85;3.20;;;;;;;10.01;100.00;100365.88;4864371;29;20061;-89
2021/12/30 06:23:37;;;;;;;16.50;3.17;;;;;;;10.06;100.00;100370.06;4855296;29;20062;-90
2021/12/30 06:26:32;;;;;;;8.27;2.92;;;;;;;10.15;100.00;100369.63;4869198;29;20030;-90
2021/12/30 06:29:18;;;;;;;14.70;3.28;;;;;;;9.98;100.00;100340.41;4874605;29;20050;-90
2021/12/30 06:32:20;;;;;;;16.17;3.85;;;;;;;10.14;100.00;100372.31;4876496;29;20062;-89
2021/12/30 06:43:32;;;;;;;14.48;4.40;;;;;;;9.93;100.00;100358.28;4839576;29;20053;-90
2021/12/30 06:47:10;;;;;;;11.88;3.88;;;;;;;10.13;100.00;100397.94;4837761;29;20041;-89
2021/12/30 06:53:31;;;;;;;;;;;;;;;;;;;;;
2021/12/30 06:56:03;;;;;;;11.73;4.00;;;;;;;9.85;100.00;100363.91;4833386;29;20050;-89
2021/12/30 06:59:25;;;;;;;13.65;4.25;;;;;;;10.25;100.00;100428.31;4821627;29;20055;-90
2021/12/30 07:02:33;;;;;;;12.98;3.78;;;;;;;9.94;100.00;100373.22;4821756;29;20079;-89
2021/12/30 07:06:07;;;;;;;;;;;;;;;;;;;;;
2021/12/30 07:09:30;;;;;;;9.98;4.18;;;;;;;10.06;100.00;100399.16;4811303;29;20058;-89
2021/12/30 07:12:40;;;;;;;15.70;4.10;;;;;;;9.99;100.00;100389.75;4818111;29;20070;-89
2021/12/30 07:15:48;;;;;;;;;;;;;;;;;;;;;
2021/12/30 07:22:25;;;;;;;11.45;3.88;;;;;;;9.77;100.00;100367.81;4731670;30;20538;-90
2021/12/30 07:25:54;;;;;;;;;;;;;;;;;;;;;
2021/12/30 07:28:38;;;;;;;17.83;4.75;;;;;;;9.94;100.00;100399.66;4760546;30;20422;-89
2021/12/30 07:31:39;;;;;;;12.52;4.72;;;;;;;10.30;100.00;100433.41;4770778;30;20059;-90
2021/12/30 07:34:11;;;;;;;10.50;4.28;;;;;;;10.36;100.00;100449.00;4770171;29;20456;-86
2021/12/30 07:36:38;;;;;;;13.77;5.50;;;;;;;10.38;100.00;100439.22;4771466;30;20066;-86
2021/12/30 07:39:09;;;;;;;9.48;4.43;;;;;;;10.23;100.00;100416.09;4784065;30;20063;-87
2021/12/30 07:41:37;;;;;;;8.60;4.07;;;;;;;10.31;100.00;100414.81;4782537;29;20059;-86
2021/12/30 07:44:09;;;;;;;13.50;4.90;;;;;;;10.43;100.00;100427.47;4783355;29;20062;-86
2021/12/30 07:46:36;;;;;;;11.82;4.25;;;;;;;10.59;100.00;100454.09;4804313;29;20038;-86
2021/12/30 07:49:05;;;;;;;12.43;4.60;;;;;;;10.31;100.00;100406.00;4801251;29;20071;-86
2021/12/30 07:51:34;;;;;;;12.68;3.95;;;;;;;10.76;100.00;100467.44;4781761;29;20154;-86
2021/12/30 07:54:02;;;;;;;7.63;4.20;;;;;;;10.67;100.00;100437.88;4774201;29;20055;-86
2021/12/30 07:56:29;;;;;;;9.00;4.20;;;;;;;10.53;100.00;100406.75;4825419;29;20058;-86
2021/12/30 07:59:08;;;;;;;9.23;4.43;;;;;;;10.56;100.00;100406.56;4839988;29;20058;-87
2021/12/30 08:02:13;;;;;;;11.23;3.65;;;;;;;10.62;100.00;100413.38;4835279;29;20094;-88
2021/12/30 08:04:45;;;;;;;7.15;4.10;;;;;;;10.68;100.00;100410.47;4832501;29;20077;-86
2021/12/30 08:07:20;;;;;;;8.48;3.55;;;;;;;10.74;100.00;100408.38;4837934;29;20637;-88
2021/12/30 08:09:50;;;;;;;9.70;3.50;;;;;;;11.25;100.00;100471.25;4831872;29;20061;-86
2021/12/30 08:12:17;;;;;;;8.55;3.33;;;;;;;11.05;100.00;100423.66;4829183;29;20081;-85
2021/12/30 08:14:44;;;;;;;8.18;3.30;;;;;;;11.20;100.00;100441.44;4829152;29;20117;-86
2021/12/30 08:17:13;;;;;;;6.28;3.40;;;;;;;11.34;100.00;100448.72;4833671;29;20069;-86
2021/12/30 08:19:40;;;;;;;5.85;2.83;;;;;;;11.36;100.00;100444.22;4829962;29;20057;-85
2021/12/30 08:22:07;;;;;;;4.75;2.60;;;;;;;11.52;100.00;100449.59;4821890;29;20054;-85
2021/12/30 08:24:34;;;;;;;4.35;2.58;;;;;;;11.72;100.00;100477.78;4826858;29;20060;-85
2021/12/30 08:27:12;;;;;;;3.88;2.38;;;;;;;11.84;100.00;100485.16;4833755;29;20050;-86
2021/12/30 08:29:40;;;;;;;3.50;2.13;;;;;;;11.87;100.00;100472.59;4834196;29;20049;-85
2021/12/30 08:32:08;;;;;;;5.60;2.25;;;;;;;11.87;100.00;100463.78;4832894;29;20065;-86
2021/12/30 08:34:35;;;;;;;5.53;2.25;;;;;;;11.85;100.00;100447.94;4829827;29;20548;-85
2021/12/30 08:37:02;;;;;;;5.95;1.98;;;;;;;12.01;100.00;100471.91;4829196;29;20061;-85
2021/12/30 08:39:30;;;;;;;2.45;1.85;;;;;;;12.08;100.00;100468.00;4833688;29;20066;-85
2021/12/30 08:41:58;;;;;;;2.75;1.80;;;;;;;12.19;100.00;100478.91;4840306;29;20620;-85
2021/12/30 08:44:26;;;;;;;2.88;2.00;;;;;;;11.92;100.00;100435.22;4850778;29;20053;-89
2021/12/30 08:46:55;;;;;;;;;;;;;;;12.26;100.00;100487.44;4858639;29;20134;-87
2021/12/30 08:49:46;;;;;;;2.88;1.80;;;;;;;11.96;100.00;100425.31;4854433;29;19924;-89
2021/12/30 08:52:21;;;;;;;1.73;1.50;;;;;;;11.99;100.00;100441.06;4853305;29;20058;-89
2021/12/30 08:54:51;;;;;;;2.42;1.63;;;;;;;12.06;100.00;100450.44;4853152;29;20149;-89
2021/12/30 08:57:21;;;;;;;2.13;1.48;;;;;;;12.48;100.00;100498.63;4856853;29;20061;-88
2021/12/30 08:59:48;;;;;;;2.08;1.25;;;;;;;12.27;100.00;100467.91;4850767;29;20053;-88
2021/12/30 09:51:40;;;;;;;1.02;0.63;;;;;;;13.45;100.00;100550.03;4897645;29;20036;-88
2021/12/30 09:54:07;;;;;;;0.63;0.50;;;;;;;13.55;100.00;100568.06;4893177;29;20091;-87
2021/12/30 09:56:34;;;;;;;2.33;0.55;;;;;;;13.57;100.00;100560.84;4881666;29;20135;-88
2021/12/30 09:59:09;;;;;;;1.67;0.68;;;;;;;13.74;100.00;100572.34;4881112;29;20064;-87
2021/12/30 10:01:37;;;;;;;0.55;0.52;;;;;;;13.66;100.00;100560.34;4879366;29;20060;-86
2021/12/30 10:04:06;;;;;;;1.13;0.60;;;;;;;13.56;100.00;100515.69;4858524;29;20070;-87
2021/12/30 10:06:36;;;;;;;0.65;0.50;;;;;;;13.82;100.00;100548.81;4862684;29;20045;-87
2021/12/30 10:09:13;;;;;;;1.30;0.80;;;;;;;13.77;100.00;100514.47;4878663;29;20890;-87
2021/12/30 10:11:50;;;;;;;1.48;0.50;;;;;;;14.07;100.00;100565.06;4879457;29;20085;-85
2021/12/30 10:14:32;;;;;;;0.68;0.60;;;;;;;13.76;100.00;100502.09;4871974;29;20108;-86
2021/12/30 10:17:23;;;;;;;0.70;0.50;;;;;;;13.95;100.00;100537.34;4875160;29;20124;-86
2021/12/30 10:19:52;;;;;;;3.72;1.05;;;;;;;14.02;100.00;100551.16;4890506;29;20144;-86
2021/12/30 10:22:23;;;;;;;1.50;0.70;;;;;;;14.15;100.00;100569.94;4885642;29;20049;-86
2021/12/30 10:24:51;;;;;;;2.30;0.50;;;;;;;14.01;100.00;100550.28;4853794;29;20151;-86
2021/12/30 10:27:26;;;;;;;0.77;0.75;;;;;;;14.16;100.00;100577.00;4880549;29;20053;-86
2021/12/30 10:29:54;;;;;;;1.35;0.80;;;;;;;13.97;100.00;100526.63;4882625;29;20136;-86
2021/12/30 10:32:27;;;;;;;1.20;0.68;;;;;;;14.09;100.00;100541.88;4881770;29;20048;-86
2021/12/30 10:35:12;;;;;;;0.98;0.60;;;;;;;14.28;100.00;100573.59;4874777;29;20117;-85
2021/12/30 10:37:43;;;;;;;1.00;0.90;;;;;;;14.25;100.00;100568.44;4881625;29;20053;-87
2021/12/30 10:40:32;;;;;;;0.93;0.60;;;;;;;14.12;100.00;100530.19;4881175;29;20069;-86
2021/12/30 10:43:30;;;;;;;1.73;0.82;;;;;;;14.35;100.00;100573.13;4879939;29;20614;-85
2021/12/30 10:46:12;;;;;;;1.00;0.90;;;;;;;14.04;100.00;100510.19;4883317;29;20057;-85
2021/12/30 10:48:48;;;;;;;2.28;0.98;;;;;;;14.29;100.00;100567.31;4879706;29;20519;-85
2021/12/30 10:51:18;;;;;;;2.63;1.80;;;;;;;14.26;100.00;100548.84;4881262;29;20064;-85
2021/12/30 10:53:49;;;;;;;2.35;1.42;;;;;;;14.41;100.00;100555.97;4881036;29;20057;-85
2021/12/30 10:56:29;;;;;;;2.67;1.38;;;;;;;14.32;100.00;100543.16;4878301;29;20056;-85
2021/12/30 10:59:22;;;;;;;1.67;1.00;;;;;;;14.56;100.00;100573.69;4887013;29;20088;-86
2021/12/30 11:01:54;;;;;;;2.28;1.02;;;;;;;14.74;100.00;100572.56;4884693;29;20053;-86
2021/12/30 11:04:31;;;;;;;0.98;0.80;;;;;;;14.60;100.00;100513.06;4885109;29;20675;-85
2021/12/30 11:06:58;;;;;;;2.38;0.90;;;;;;;14.66;100.00;100515.34;4886793;29;20091;-85
2021/12/30 11:09:24;;;;;;;2.00;1.08;;;;;;;14.77;100.00;100528.88;4889597;29;20048;-85
2021/12/30 11:11:58;;;;;;;1.70;0.85;;;;;;;15.08;100.00;100560.66;4898515;29;20120;-86
2021/12/30 11:14:32;;;;;;;1.35;0.80;;;;;;;14.89;100.00;100517.44;4885189;29;20572;-84
2021/12/30 11:17:16;;;;;;;1.40;0.52;;;;;;;15.18;100.00;100565.41;4878817;29;20151;-85
2021/12/30 11:19:50;;;;;;;1.00;0.45;;;;;;;15.24;100.00;100559.69;4875809;29;20437;-85
2021/12/30 11:22:22;;;;;;;0.68;0.60;;;;;;;15.34;99.87;100560.81;4879565;29;20470;-85
2021/12/30 11:24:51;;;;;;;1.05;0.82;;;;;;;14.96;100.00;100489.41;4876105;29;20489;-84
2021/12/30 11:27:20;;;;;;;0.90;0.60;;;;;;;15.45;99.07;100563.63;4883611;29;20053;-85
2021/12/30 11:29:51;;;;;;;1.33;0.73;;;;;;;15.33;100.00;100548.44;4882963;29;20143;-83
2021/12/30 11:32:21;;;;;;;0.95;0.73;;;;;;;15.27;100.00;100557.66;4884340;29;20049;-84
2021/12/30 11:34:49;;;;;;;1.10;0.70;;;;;;;14.92;100.00;100506.59;4869327;29;20091;-85
2021/12/30 11:37:18;;;;;;;2.33;0.95;;;;;;;15.14;100.00;100534.53;4879533;29;20041;-84
2021/12/30 11:39:52;;;;;;;0.75;0.50;;;;;;;15.25;99.32;100546.25;4883322;29;20053;-84
2021/12/30 11:42:23;;;;;;;1.02;0.77;;;;;;;15.12;100.00;100542.63;4881644;29;20139;-85
2021/12/30 11:44:53;;;;;;;1.05;0.80;;;;;;;15.08;100.00;100539.34;4870680;29;20056;-85
2021/12/30 11:47:33;;;;;;;1.52;0.70;;;;;;;15.28;100.00;100561.19;4880386;29;20082;-85
2021/12/30 11:50:10;;;;;;;1.52;0.40;;;;;;;15.41;100.00;100551.47;4876491;29;20061;-85
2021/12/30 11:53:12;;;;;;;0.88;0.52;;;;;;;15.36;99.43;100537.56;4872703;29;20061;-86
2021/12/30 11:56:02;;;;;;;1.02;0.60;;;;;;;15.52;100.00;100546.28;4877235;29;20041;-86
2021/12/30 11:58:42;;;;;;;0.30;0.30;;;;;;;15.61;96.70;100558.19;4862388;29;20501;-86
2021/12/30 12:01:11;;;;;;;0.60;0.30;;;;;;;15.54;98.69;100548.88;4867640;29;20102;-86
2021/12/30 12:03:40;;;;;;;1.05;0.43;;;;;;;15.54;100.00;100555.06;4875527;29;20061;-86
2021/12/30 12:06:46;;;;;;;0.30;0.30;;;;;;;15.79;93.38;100560.53;4874168;29;20061;-86
2021/12/30 12:09:19;;;;;;;0.30;0.30;;;;;;;15.74;96.68;100559.97;4874950;29;20056;-83
2021/12/30 12:11:49;;;;;;;0.25;0.22;;;;;;;15.55;98.24;100553.25;4876174;29;20489;-84
2021/12/30 12:14:25;;;;;;;0.80;0.20;;;;;;;15.48;97.57;100547.44;4869421;29;20061;-84
2021/12/30 12:16:58;;;;;;;1.80;0.57;;;;;;;15.66;94.59;100564.09;4877691;29;20052;-86
2021/12/30 12:19:39;;;;;;;1.40;0.60;;;;;;;15.83;94.13;100561.19;4861157;29;20048;-84
2021/12/30 12:22:26;;;;;;;0.35;0.32;;;;;;;15.94;93.65;100549.78;4879433;29;20061;-85
2021/12/30 12:25:20;;;;;;;2.00;1.27;;;;;;;15.91;91.70;100520.59;4872327;29;20067;-87
2021/12/30 12:27:54;;;;;;;2.65;1.15;;;;;;;15.83;94.58;100531.81;4872132;29;21112;-85
2021/12/30 12:30:38;;;;;;;1.58;0.88;;;;;;;16.00;91.17;100568.09;4872087;29;20052;-88
2021/12/30 12:33:28;;;;;;;0.82;0.70;;;;;;;16.00;93.37;100549.38;4874850;29;20088;-84
2021/12/30 12:35:56;;;;;;;1.77;0.80;;;;;;;15.94;91.74;100531.09;4863545;29;20500;-85
2021/12/30 12:38:41;;;;;;;0.85;0.80;;;;;;;15.85;92.60;100521.88;4872407;29;20057;-83
2021/12/30 12:41:23;;;;;;;1.45;1.00;;;;;;;16.01;89.53;100525.25;4871125;29;20053;-84
2021/12/30 12:44:12;;;;;;;1.70;1.00;;;;;;;15.98;89.22;100529.94;4870430;29;20105;-84
2021/12/30 12:46:50;;;;;;;1.80;0.80;;;;;;;15.90;88.49;100516.25;4875824;29;20057;-87
2021/12/30 12:49:41;;;;;;;1.67;0.90;;;;;;;15.84;88.69;100516.66;4877317;29;20053;-88
2021/12/30 12:52:11;;;;;;;1.27;0.70;;;;;;;15.69;89.47;100519.38;4876697;29;20099;-87
2021/12/30 12:54:47;;;;;;;2.22;1.10;;;;;;;15.74;89.92;100533.25;4874599;29;20052;-87
2021/12/30 12:57:17;;;;;;;1.10;1.00;;;;;;;15.58;91.41;100521.06;4873298;29;20060;-85
2021/12/30 12:59:44;;;;;;;2.25;1.00;;;;;;;15.88;90.24;100537.72;4879517;29;20064;-85
2021/12/30 13:02:13;;;;;;;1.10;1.00;;;;;;;15.96;90.14;100550.53;4881343;29;20063;-85
2021/12/30 13:04:41;;;;;;;1.73;1.20;;;;;;;16.03;89.89;100544.69;4881164;29;20060;-86
2021/12/30 13:07:13;;;;;;;2.47;1.40;;;;;;;16.29;87.62;100539.41;4875334;29;20412;-86
2021/12/30 13:09:45;;;;;;;2.75;1.35;;;;;;;16.50;86.00;100527.25;4879525;29;20176;-85
2021/12/30 13:12:17;;;;;;;1.50;1.35;;;;;;;16.57;84.49;100528.50;4877543;29;20502;-85
2021/12/30 13:14:45;;;;;;;1.10;0.90;;;;;;;16.52;84.65;100537.84;4873777;29;20656;-85
2021/12/30 13:17:13;;;;;;;1.17;1.00;;;;;;;16.26;85.52;100510.22;4882482;29;20048;-86
2021/12/30 13:19:45;;;;;;;2.10;1.40;;;;;;;16.25;85.94;100529.88;4876078;29;20057;-86
2021/12/30 13:22:14;;;;;;;1.48;1.05;;;;;;;16.29;85.80;100529.56;4858565;29;20351;-86
2021/12/30 13:24:48;;;;;;;1.52;0.98;;;;;;;16.38;84.88;100552.97;4876605;29;20061;-86
2021/12/30 13:27:15;;;;;;;1.73;1.00;;;;;;;16.25;85.57;100551.25;4877637;29;20049;-86
2021/12/30 13:29:49;;;;;;;1.98;1.30;;;;;;;15.96;86.42;100510.47;4876491;29;20141;-86
2021/12/30 13:32:27;;;;;;;1.15;0.75;;;;;;;16.16;85.88;100539.38;4870021;29;20179;-86
2021/12/30 13:35:06;;;;;;;1.60;1.00;;;;;;;16.17;85.88;100530.41;4871404;29;20071;-86
2021/12/30 13:37:34;;;;;;;1.02;0.93;;;;;;;16.23;85.01;100527.31;4876836;29;20053;-85
2021/12/30 13:40:04;;;;;;;1.23;0.80;;;;;;;16.15;83.78;100510.94;4875402;29;20057;-86
2021/12/30 13:42:35;;;;;;;1.45;1.00;;;;;;;16.01;83.99;100490.53;4871375;29;20836;-85
2021/12/30 13:45:03;;;;;;;3.58;1.52;;;;;;;16.17;83.43;100510.84;4873880;29;20063;-86
2021/12/30 13:47:38;;;;;;;1.10;0.85;;;;;;;16.25;83.55;100545.91;4872835;29;20079;-86
2021/12/30 13:50:18;;;;;;;0.77;0.68;;;;;;;16.21;84.10;100541.75;4874385;29;20132;-85